createdAt,value
2022-12-23T00:01:30.364Z,9.38
2022-12-23T00:03:59.239Z,10.30
2022-12-23T00:06:26.513Z,10.30
2022-12-23T00:08:59.021Z,10.93
2022-12-23T00:11:27.621Z,9.30
2022-12-23T00:14:20.476Z,8.73
2022-12-23T00:16:47.733Z,9.40
2022-12-23T00:19:14.680Z,9.80
2022-12-23T00:21:41.479Z,9.75
2022-12-23T00:24:08.431Z,9.75
2022-12-23T00:26:35.376Z,9.57
2022-12-23T00:29:02.333Z,9.82
2022-12-23T00:31:29.204Z,9.98
2022-12-23T00:33:56.116Z,10.55
2022-12-23T00:36:24.853Z,11.70
2022-12-23T00:39:10.238Z,11.95
2022-12-23T00:41:57.284Z,10.68
2022-12-23T00:44:24.621Z,10.75
2022-12-23T00:46:51.828Z,10.10
2022-12-23T00:49:38.411Z,10.43
2022-12-23T00:52:07.249Z,10.18
2022-12-23T00:54:34.119Z,12.88
2022-12-23T00:57:01.145Z,9.27
2022-12-23T00:59:28.063Z,9.65
2022-12-23T01:02:13.441Z,9.63
2022-12-23T01:04:58.887Z,9.57
2022-12-23T01:07:26.030Z,9.18
2022-12-23T01:09:52.875Z,10.23
2022-12-23T01:12:20.080Z,10.82
2022-12-23T01:14:46.993Z,9.98
2022-12-23T01:17:14.009Z,10.18
2022-12-23T01:19:40.919Z,9.57
2022-12-23T01:22:07.885Z,9.98
2022-12-23T01:24:34.707Z,9.65
2022-12-23T01:27:01.783Z,10.90
2022-12-23T01:29:29.106Z,10.70
2022-12-23T01:31:56.095Z,9.95
2022-12-23T01:34:23.097Z,10.48
2022-12-23T01:36:49.885Z,9.50
2022-12-23T01:39:16.794Z,10.40
2022-12-23T01:42:02.257Z,11.00
2022-12-23T01:44:53.824Z,10.98
2022-12-23T01:47:32.002Z,9.80
2022-12-23T01:50:14.000Z,10.55
2022-12-23T01:52:47.671Z,10.55
2022-12-23T01:55:18.598Z,12.82
2022-12-23T01:57:47.607Z,11.45
2022-12-23T02:00:34.505Z,10.40
2022-12-23T02:03:20.072Z,10.50
2022-12-23T02:05:48.332Z,9.70
2022-12-23T02:08:35.009Z,11.15
2022-12-23T02:11:21.903Z,9.80
2022-12-23T02:14:41.913Z,10.65
2022-12-23T02:17:36.009Z,11.73
2022-12-23T02:20:14.558Z,10.90
2022-12-23T02:22:59.412Z,11.43
2022-12-23T02:25:41.158Z,11.05
2022-12-23T02:28:10.820Z,10.93
2022-12-23T02:30:48.525Z,13.43
2022-12-23T02:33:39.513Z,12.20
2022-12-23T02:36:38.386Z,12.88
2022-12-23T02:39:08.187Z,11.82
2022-12-23T02:41:41.124Z,12.18
2022-12-23T02:44:29.556Z,14.27
2022-12-23T02:47:06.861Z,11.82
2022-12-23T02:49:46.653Z,11.02
2022-12-23T02:52:17.193Z,10.75
2022-12-23T02:54:58.940Z,11.00
2022-12-23T02:57:32.654Z,11.07
2022-12-23T03:00:01.698Z,11.18
2022-12-23T03:02:28.632Z,11.82
2022-12-23T03:04:55.603Z,11.23
2022-12-23T03:07:35.648Z,12.23
2022-12-23T03:10:12.548Z,11.75
2022-12-23T03:12:54.248Z,11.55
2022-12-23T03:15:37.621Z,12.73
2022-12-23T03:18:25.602Z,12.70
2022-12-23T03:21:16.961Z,12.18
2022-12-23T03:23:57.975Z,11.90
2022-12-23T03:26:38.685Z,11.60
2022-12-23T03:29:43.892Z,25.90
2022-12-23T03:32:14.544Z,17.73
2022-12-23T03:34:45.742Z,13.20
2022-12-23T03:37:16.066Z,11.68
2022-12-23T03:39:50.093Z,10.63
2022-12-23T03:42:28.582Z,11.40
2022-12-23T03:50:19.579Z,10.20
2022-12-23T03:52:55.748Z,11.23
2022-12-23T03:55:35.380Z,12.10
2022-12-23T03:58:12.288Z,12.20
2022-12-23T04:01:07.932Z,11.32
2022-12-23T04:03:48.320Z,11.23
2022-12-23T04:06:17.755Z,12.30
2022-12-23T04:08:46.534Z,13.43
2022-12-23T04:11:13.780Z,13.85
2022-12-23T04:13:40.819Z,14.15
2022-12-23T04:16:08.185Z,14.18
2022-12-23T04:18:35.026Z,13.63
2022-12-23T04:21:01.862Z,11.88
2022-12-23T04:23:28.884Z,10.80
2022-12-23T04:25:55.796Z,12.07
2022-12-23T04:28:23.064Z,16.92
2022-12-23T04:30:49.919Z,12.57
2022-12-23T04:33:16.869Z,11.45
2022-12-23T04:35:43.771Z,10.73
2022-12-23T04:38:11.404Z,10.98
2022-12-23T04:40:38.221Z,10.48
2022-12-23T04:43:05.121Z,10.93
2022-12-23T04:45:32.878Z,10.30
2022-12-23T04:47:59.812Z,10.65
2022-12-23T04:50:26.635Z,14.20
2022-12-23T04:52:53.459Z,13.48
2022-12-23T04:55:20.480Z,10.88
2022-12-23T04:57:47.283Z,12.38
2022-12-23T05:00:14.672Z,11.75
2022-12-23T05:02:41.612Z,10.80
2022-12-23T05:05:09.007Z,14.40
2022-12-23T05:07:35.944Z,13.75
2022-12-23T05:10:02.841Z,14.88
2022-12-23T05:12:30.479Z,11.63
2022-12-23T05:14:57.595Z,11.32
2022-12-23T05:17:24.415Z,13.18
2022-12-23T05:19:51.434Z,10.93
2022-12-23T05:22:18.286Z,11.27
2022-12-23T05:24:45.144Z,14.60
2022-12-23T05:27:12.034Z,29.98
2022-12-23T05:29:38.949Z,13.52
2022-12-23T05:32:06.032Z,11.85
2022-12-23T05:34:32.951Z,12.55
2022-12-23T05:37:03.150Z,12.95
2022-12-23T05:39:30.145Z,12.63
2022-12-23T05:41:57.062Z,11.10
2022-12-23T05:44:23.931Z,10.48
2022-12-23T05:46:50.757Z,11.25
2022-12-23T05:49:17.743Z,9.98
2022-12-23T05:51:44.648Z,11.32
2022-12-23T05:54:11.524Z,12.95
2022-12-23T05:56:38.330Z,10.73
2022-12-23T05:59:05.245Z,10.23
2022-12-23T06:01:32.449Z,10.07
2022-12-23T06:03:59.473Z,10.20
2022-12-23T06:06:26.464Z,9.93
2022-12-23T06:08:59.146Z,10.98
2022-12-23T06:11:26.515Z,11.90
2022-12-23T06:13:53.285Z,13.70
2022-12-23T06:16:20.225Z,13.77
2022-12-23T06:18:47.096Z,16.45
2022-12-23T06:21:13.939Z,23.65
2022-12-23T06:23:40.829Z,19.55
2022-12-23T06:26:07.670Z,13.48
2022-12-23T06:28:34.521Z,13.00
2022-12-23T06:31:01.410Z,11.23
2022-12-23T06:33:28.326Z,11.27
2022-12-23T06:35:55.137Z,10.57
2022-12-23T06:38:22.121Z,10.43
2022-12-23T06:40:49.042Z,10.35
2022-12-23T06:43:15.992Z,11.48
2022-12-23T06:45:47.049Z,11.60
2022-12-23T06:48:13.963Z,11.43
2022-12-23T06:50:40.851Z,13.52
2022-12-23T06:53:08.488Z,10.52
2022-12-23T06:55:35.492Z,12.30
2022-12-23T06:58:02.320Z,10.98
2022-12-23T07:00:29.264Z,12.68
2022-12-23T07:02:56.292Z,10.55
2022-12-23T07:05:23.293Z,10.77
2022-12-23T07:07:50.209Z,10.85
2022-12-23T07:10:17.055Z,11.27
2022-12-23T07:12:50.382Z,17.00
2022-12-23T07:15:17.876Z,14.82
2022-12-23T07:17:44.986Z,14.27
2022-12-23T07:20:13.654Z,11.80
2022-12-23T07:22:40.591Z,13.02
2022-12-23T07:25:08.204Z,14.10
2022-12-23T07:27:35.110Z,15.23
2022-12-23T07:30:01.964Z,13.57
2022-12-23T07:32:28.829Z,12.70
2022-12-23T07:34:55.642Z,13.20
2022-12-23T07:37:22.539Z,11.70
2022-12-23T07:39:49.312Z,12.50
2022-12-23T07:42:43.594Z,11.35
2022-12-23T07:45:04.545Z,17.85
2022-12-23T07:47:31.542Z,13.20
2022-12-23T07:49:58.411Z,14.68
2022-12-23T07:52:25.246Z,11.30
2022-12-23T07:54:52.119Z,13.35
2022-12-23T07:57:19.017Z,11.52
2022-12-23T07:59:45.860Z,11.43
2022-12-23T08:02:12.798Z,13.07
2022-12-23T08:04:45.809Z,11.93
2022-12-23T08:07:13.212Z,11.05
2022-12-23T08:09:40.031Z,11.88
2022-12-23T08:12:07.195Z,10.55
2022-12-23T08:14:34.065Z,10.32
2022-12-23T08:17:00.987Z,10.75
2022-12-23T08:19:27.931Z,11.57
2022-12-23T08:21:54.730Z,11.27
2022-12-23T08:24:21.563Z,11.45
2022-12-23T08:26:48.402Z,11.43
2022-12-23T08:29:15.300Z,11.45
2022-12-23T08:31:42.132Z,10.98
2022-12-23T08:34:09.109Z,10.77
2022-12-23T08:36:36.690Z,11.13
2022-12-23T08:39:07.376Z,11.32
2022-12-23T08:41:38.574Z,10.60
2022-12-23T08:44:06.004Z,10.68
2022-12-23T08:46:33.096Z,11.13
2022-12-23T08:49:00.600Z,11.73
2022-12-23T08:51:28.409Z,12.90
2022-12-23T08:54:00.527Z,13.65
2022-12-23T08:56:31.769Z,14.50
2022-12-23T08:58:59.083Z,13.75
2022-12-23T09:01:29.088Z,13.85
2022-12-23T09:03:56.905Z,12.27
2022-12-23T09:06:29.972Z,14.00
2022-12-23T09:08:58.177Z,15.38
2022-12-23T09:11:27.018Z,19.35
2022-12-23T09:13:54.524Z,17.92
2022-12-23T09:16:22.002Z,14.77
2022-12-23T09:18:48.921Z,14.02
2022-12-23T09:21:20.512Z,14.10
2022-12-23T09:23:48.091Z,13.77
2022-12-23T09:26:21.675Z,16.17
2022-12-23T09:28:48.696Z,13.32
2022-12-23T09:31:15.799Z,15.70
2022-12-23T09:33:43.264Z,16.40
2022-12-23T09:36:10.225Z,14.25
2022-12-23T09:38:37.829Z,18.25
2022-12-23T09:41:42.908Z,17.33
2022-12-23T09:44:19.239Z,14.57
2022-12-23T09:46:53.703Z,12.02
2022-12-23T09:49:22.675Z,15.88
2022-12-23T09:51:54.220Z,19.88
2022-12-23T09:54:26.236Z,15.23
2022-12-23T09:57:00.507Z,11.50
2022-12-23T09:59:49.082Z,11.95
2022-12-23T10:02:28.650Z,10.48
2022-12-23T10:05:02.957Z,10.68
2022-12-23T10:07:51.422Z,11.43
2022-12-23T10:10:47.194Z,13.00
2022-12-23T10:13:40.383Z,13.43
2022-12-23T10:16:12.624Z,16.85
2022-12-23T10:21:47.286Z,16.33
2022-12-23T10:24:24.166Z,13.75
2022-12-23T10:27:02.818Z,14.88
2022-12-23T10:29:34.154Z,14.25
2022-12-23T10:32:27.854Z,14.75
2022-12-23T10:35:15.848Z,12.30
2022-12-23T10:37:49.170Z,13.80
2022-12-23T10:40:40.453Z,13.27
2022-12-23T10:43:35.820Z,13.77
2022-12-23T10:46:19.631Z,15.73
2022-12-23T10:48:46.494Z,17.40
2022-12-23T10:51:19.963Z,19.33
2022-12-23T10:53:52.436Z,15.50
2022-12-23T10:56:20.557Z,17.48
2022-12-23T10:58:51.870Z,17.95
2022-12-23T11:01:26.636Z,18.83
2022-12-23T11:04:13.347Z,18.10
2022-12-23T11:06:55.818Z,16.25
2022-12-23T11:09:39.982Z,15.15
2022-12-23T11:12:10.282Z,17.60
2022-12-23T11:14:43.242Z,18.23
2022-12-23T11:17:24.103Z,18.40
2022-12-23T11:20:14.460Z,18.55
2022-12-23T11:23:03.052Z,16.55
2022-12-23T11:25:41.701Z,18.60
2022-12-23T11:28:15.452Z,16.55
2022-12-23T11:30:56.978Z,16.20
2022-12-23T11:33:27.046Z,17.05
2022-12-23T11:36:13.227Z,17.25
2022-12-23T11:38:58.499Z,19.25
2022-12-23T11:41:30.464Z,18.52
2022-12-23T11:44:00.303Z,19.63
2022-12-23T11:46:31.394Z,18.73
2022-12-23T11:49:14.188Z,17.90
2022-12-23T11:51:41.959Z,19.45
2022-12-23T11:54:16.076Z,19.58
2022-12-23T11:56:43.579Z,19.67
2022-12-23T11:59:42.063Z,20.45
2022-12-23T12:02:32.804Z,19.55
2022-12-23T12:05:16.595Z,19.27
2022-12-23T12:07:45.268Z,19.88
2022-12-23T12:10:25.850Z,18.27
2022-12-23T12:12:57.208Z,16.52
2022-12-23T12:15:43.390Z,17.27
2022-12-23T12:18:17.145Z,18.13
2022-12-23T12:20:53.510Z,18.95
2022-12-23T12:23:34.220Z,18.55
2022-12-23T12:26:05.357Z,17.58
2022-12-23T12:28:40.460Z,16.83
2022-12-23T12:31:43.928Z,16.13
2022-12-23T12:34:35.686Z,17.25
2022-12-23T12:37:23.239Z,18.10
2022-12-23T12:39:53.669Z,15.55
2022-12-23T12:42:44.469Z,16.23
2022-12-23T12:45:17.144Z,15.20
2022-12-23T12:48:18.580Z,14.48
2022-12-23T12:51:09.155Z,14.82
2022-12-23T12:53:43.107Z,15.43
2022-12-23T12:56:39.196Z,14.70
2022-12-23T13:02:15.455Z,14.60
2022-12-23T13:05:09.713Z,14.57
2022-12-23T13:07:55.282Z,15.82
2022-12-23T13:10:48.950Z,15.77
2022-12-23T13:13:35.835Z,15.63
2022-12-23T13:16:13.581Z,16.80
2022-12-23T13:18:43.323Z,16.58
2022-12-23T13:21:16.664Z,16.27
2022-12-23T13:24:03.904Z,16.00
2022-12-23T13:26:39.192Z,15.93
2022-12-23T13:29:33.854Z,16.38
2022-12-23T13:32:30.046Z,16.58
2022-12-23T13:35:22.757Z,17.45
2022-12-23T13:38:13.873Z,16.67
2022-12-23T13:40:59.179Z,16.88
2022-12-23T13:43:36.184Z,20.70
2022-12-23T13:46:09.683Z,19.10
2022-12-23T13:49:02.090Z,19.17
2022-12-23T13:51:49.331Z,19.27
2022-12-23T13:54:22.279Z,17.45
2022-12-23T13:56:59.618Z,18.25
2022-12-23T13:59:41.679Z,17.50
2022-12-23T14:03:01.955Z,18.42
2022-12-23T14:05:34.943Z,23.42
2022-12-23T14:08:06.811Z,20.20
2022-12-23T14:10:35.023Z,16.67
2022-12-23T14:13:08.548Z,17.52
2022-12-23T14:15:43.286Z,17.60
2022-12-23T14:18:25.518Z,22.05
2022-12-23T14:21:39.010Z,20.20
2022-12-23T14:24:43.102Z,29.60
2022-12-23T14:27:25.305Z,28.50
2022-12-23T14:30:29.589Z,31.85
2022-12-23T14:33:02.830Z,22.15
2022-12-23T14:35:38.502Z,46.03
2022-12-23T14:38:15.136Z,29.33
2022-12-23T14:40:41.915Z,35.15
2022-12-23T14:43:33.351Z,47.05
2022-12-23T14:46:05.019Z,34.38
2022-12-23T14:48:34.786Z,43.22
2022-12-23T14:51:22.528Z,29.17
2022-12-23T14:53:52.549Z,18.85
2022-12-23T14:56:19.383Z,27.77
2022-12-23T14:58:46.128Z,34.67
2022-12-23T15:01:27.736Z,23.50
2022-12-23T15:04:01.259Z,37.40
2022-12-23T15:06:43.174Z,24.23
2022-12-23T15:09:20.799Z,27.08
2022-12-23T15:11:48.226Z,22.25
2022-12-23T15:14:25.475Z,33.00
2022-12-23T15:16:52.452Z,32.47
2022-12-23T15:19:27.045Z,33.67
2022-12-23T15:22:21.092Z,59.00
2022-12-23T15:24:49.566Z,33.00
2022-12-23T15:27:29.391Z,27.30
2022-12-23T15:29:57.760Z,27.98
2022-12-23T15:32:26.855Z,25.25
2022-12-23T15:35:01.187Z,27.67
2022-12-23T15:37:30.966Z,27.83
2022-12-23T15:40:04.856Z,23.63
2022-12-23T15:42:38.556Z,21.73
2022-12-23T15:45:23.845Z,21.75
2022-12-23T15:47:51.043Z,23.92
2022-12-23T15:50:19.396Z,28.33
2022-12-23T15:52:48.837Z,40.67
2022-12-23T15:55:29.819Z,71.43
2022-12-23T15:57:58.025Z,42.63
2022-12-23T16:00:38.592Z,34.65
2022-12-23T16:03:13.616Z,37.08
2022-12-23T16:05:44.942Z,38.78
2022-12-23T16:08:16.207Z,37.80
2022-12-23T16:11:15.776Z,39.53
2022-12-23T16:14:21.444Z,30.48
2022-12-23T16:16:48.456Z,27.08
2022-12-23T16:19:47.659Z,27.65
2022-12-23T16:22:21.003Z,29.75
2022-12-23T16:24:56.963Z,29.17
2022-12-23T16:27:34.758Z,26.25
2022-12-23T16:30:21.412Z,28.35
2022-12-23T16:32:54.761Z,26.63
2022-12-23T16:35:40.837Z,26.92
2022-12-23T16:38:17.062Z,35.53
2022-12-23T16:40:47.238Z,34.55
2022-12-23T16:43:14.312Z,40.60
2022-12-23T16:45:42.043Z,37.80
2022-12-23T16:48:20.083Z,34.55
2022-12-23T16:50:48.643Z,48.53
2022-12-23T16:53:15.934Z,41.63
2022-12-23T16:55:50.248Z,41.35
2022-12-23T16:58:19.889Z,44.35
2022-12-23T17:00:47.019Z,49.13
2022-12-23T17:03:18.157Z,44.03
2022-12-23T17:05:45.965Z,45.80
2022-12-23T17:08:13.035Z,44.17
2022-12-23T17:10:42.262Z,56.13
2022-12-23T17:13:12.206Z,75.47
2022-12-23T17:15:39.075Z,56.30
2022-12-23T17:18:12.544Z,56.45
2022-12-23T17:20:39.423Z,56.10
2022-12-23T17:23:08.925Z,53.22
2022-12-23T17:25:35.739Z,53.75
2022-12-23T17:28:02.681Z,52.35
2022-12-23T17:30:30.088Z,50.10
2022-12-23T17:32:59.858Z,43.70
2022-12-23T17:35:27.028Z,47.22
2022-12-23T17:37:53.972Z,49.08
2022-12-23T17:40:20.988Z,46.30
2022-12-23T17:42:48.321Z,45.95
2022-12-23T17:45:23.896Z,53.20
2022-12-23T17:47:50.836Z,38.85
2022-12-23T17:50:17.808Z,48.00
2022-12-23T17:52:44.738Z,47.85
2022-12-23T17:55:20.725Z,46.95
2022-12-23T17:57:47.953Z,51.75
2022-12-23T18:00:25.152Z,47.35
2022-12-23T18:02:57.375Z,61.58
2022-12-23T18:05:32.499Z,80.72
2022-12-23T18:08:01.007Z,87.65
2022-12-23T18:10:39.173Z,95.15
2022-12-23T18:13:15.711Z,75.35
2022-12-23T18:15:44.346Z,71.15
2022-12-23T18:18:28.931Z,46.33
2022-12-23T18:21:02.555Z,33.15
2022-12-23T18:23:31.921Z,37.08
2022-12-23T18:25:59.349Z,32.17
2022-12-23T18:28:26.796Z,28.23
2022-12-23T18:30:56.988Z,34.20
2022-12-23T18:33:28.762Z,49.45
2022-12-23T18:35:56.386Z,29.17
2022-12-23T18:38:23.373Z,23.90
2022-12-23T18:40:53.977Z,24.85
2022-12-23T18:43:23.320Z,28.08
2022-12-23T18:45:53.542Z,32.20
2022-12-23T18:48:21.785Z,47.65
2022-12-23T18:50:48.969Z,30.65
2022-12-23T18:53:24.532Z,83.25
2022-12-23T18:55:52.868Z,51.08
2022-12-23T18:58:20.322Z,36.35
2022-12-23T19:00:49.337Z,32.65
2022-12-23T19:03:23.493Z,38.75
2022-12-23T19:05:51.502Z,32.25
2022-12-23T19:08:25.492Z,31.27
2022-12-23T19:10:54.774Z,33.38
2022-12-23T19:13:22.079Z,36.17
2022-12-23T19:15:49.171Z,32.20
2022-12-23T19:18:18.985Z,32.33
2022-12-23T19:20:47.388Z,31.25
2022-12-23T19:23:14.790Z,32.47
2022-12-23T19:25:45.183Z,27.48
2022-12-23T19:28:19.260Z,26.88
2022-12-23T19:30:46.479Z,26.23
2022-12-23T19:33:13.748Z,26.05
2022-12-23T19:35:44.558Z,26.50
2022-12-23T19:38:12.549Z,26.70
2022-12-23T19:40:40.275Z,25.45
2022-12-23T19:43:07.598Z,26.02
2022-12-23T19:45:34.668Z,25.67
2022-12-23T19:48:01.639Z,27.85
2022-12-23T19:50:28.501Z,31.83
2022-12-23T19:52:56.588Z,23.80
2022-12-23T19:55:23.874Z,25.70
2022-12-23T19:57:51.822Z,28.25
2022-12-23T20:00:18.684Z,29.20
2022-12-23T20:02:45.641Z,30.42
2022-12-23T20:05:12.597Z,31.13
2022-12-23T20:07:39.470Z,28.85
2022-12-23T20:10:07.130Z,29.10
2022-12-23T20:12:34.006Z,26.88
2022-12-23T20:15:00.986Z,24.27
2022-12-23T20:17:27.806Z,24.92
2022-12-23T20:19:54.716Z,22.58
2022-12-23T20:22:21.887Z,23.90
2022-12-23T20:24:49.969Z,25.38
2022-12-23T20:27:20.101Z,26.00
2022-12-23T20:29:49.567Z,41.17
2022-12-23T20:32:16.613Z,45.72
2022-12-23T20:34:43.543Z,53.97
2022-12-23T20:37:11.831Z,68.68
2022-12-23T20:39:38.722Z,31.40
2022-12-23T20:42:05.554Z,39.97
2022-12-23T20:44:34.945Z,44.47
2022-12-23T20:47:03.568Z,48.95
2022-12-23T20:49:30.660Z,45.75
2022-12-23T20:51:57.583Z,32.75
2022-12-23T20:54:31.697Z,32.15
2022-12-23T20:56:59.893Z,39.00
2022-12-23T20:59:26.829Z,32.72
2022-12-23T21:01:53.812Z,32.53
2022-12-23T21:04:20.907Z,29.40
2022-12-23T21:06:48.277Z,29.02
2022-12-23T21:09:15.920Z,26.15
2022-12-23T21:11:45.003Z,26.92
2022-12-23T21:14:12.354Z,26.92
2022-12-23T21:16:39.610Z,25.75
2022-12-23T21:19:08.754Z,34.20
2022-12-23T21:21:35.959Z,29.25
2022-12-23T21:24:04.770Z,41.40
2022-12-23T21:26:33.334Z,31.13
2022-12-23T21:29:02.015Z,25.58
2022-12-23T21:31:31.052Z,32.10
2022-12-23T21:33:58.579Z,31.17
2022-12-23T21:36:29.418Z,36.83
2022-12-23T21:38:56.906Z,35.22
2022-12-23T21:41:31.759Z,35.22
2022-12-23T21:43:59.852Z,30.40
2022-12-23T21:46:28.179Z,24.10
2022-12-23T21:48:59.168Z,28.17
2022-12-23T21:51:33.327Z,28.55
2022-12-23T21:54:05.686Z,27.48
2022-12-23T21:56:33.066Z,21.05
2022-12-23T21:59:02.652Z,21.83
2022-12-23T22:01:30.051Z,26.00
2022-12-23T22:03:57.475Z,25.35
2022-12-23T22:06:29.441Z,27.88
2022-12-23T22:08:57.522Z,26.70
2022-12-23T22:11:28.967Z,24.73
2022-12-23T22:13:57.522Z,23.08
2022-12-23T22:16:26.467Z,21.95
2022-12-23T22:18:54.004Z,22.95
2022-12-23T22:21:23.337Z,24.92
2022-12-23T22:23:51.442Z,33.42
2022-12-23T22:26:25.126Z,35.97
2022-12-23T22:28:57.208Z,27.17
2022-12-23T22:31:42.344Z,23.40
2022-12-23T22:34:13.647Z,22.17
2022-12-23T22:36:40.710Z,21.73
2022-12-23T22:39:08.205Z,23.65
2022-12-23T22:41:35.265Z,45.83
2022-12-23T22:44:02.157Z,30.30
2022-12-23T22:46:29.967Z,33.60
2022-12-23T22:48:58.772Z,25.92
2022-12-23T22:51:28.391Z,33.55
2022-12-23T22:53:56.140Z,29.52
2022-12-23T22:56:24.375Z,30.25
2022-12-23T22:58:53.801Z,30.55
2022-12-23T23:01:25.462Z,31.40
2022-12-23T23:03:57.470Z,30.20
2022-12-23T23:06:29.933Z,29.77
2022-12-23T23:08:57.315Z,27.20
2022-12-23T23:11:26.068Z,26.92
2022-12-23T23:13:53.599Z,26.67
2022-12-23T23:16:21.263Z,28.58
2022-12-23T23:18:48.544Z,28.23
2022-12-23T23:21:15.997Z,29.55
2022-12-23T23:23:42.854Z,30.15
2022-12-23T23:26:10.388Z,30.98
2022-12-23T23:28:39.518Z,31.40
2022-12-23T23:31:40.464Z,31.00
2022-12-23T23:33:54.535Z,30.10
2022-12-23T23:36:21.464Z,29.20
2022-12-23T23:38:48.431Z,30.50
2022-12-23T23:41:22.248Z,28.17
2022-12-23T23:43:50.103Z,26.88
2022-12-23T23:46:17.041Z,26.45
2022-12-23T23:48:43.937Z,26.05
2022-12-23T23:51:10.950Z,24.23
2022-12-23T23:53:37.819Z,23.95
2022-12-23T23:56:06.699Z,26.08
2022-12-23T23:58:34.503Z,26.40
